Time;durP1;ratioP1;P1;durP2;ratioP2;P2;SDS_P1;SDS_P2;PMS_P1;PMS_P2;Temp;Humidity;BMP_temperature;BMP_pressure;BME280_temperature;BME280_humidity;BME280_pressure;Samples;Min_cycle;Max_cycle;Signal;HPM_P1;HPM_P2
2021/01/14 00:00:08;;;;;;;3.22;2.72;;;5.80;98.30;;;;;;5038512;28;20181;-80
2021/01/14 00:02:35;;;;;;;6.22;3.15;;;5.80;98.10;;;;;;5037673;28;20669;-80
2021/01/14 00:05:01;;;;;;;5.90;3.58;;;5.70;97.90;;;;;;5037770;28;20178;-80
2021/01/14 00:07:26;;;;;;;5.37;3.37;;;5.70;97.60;;;;;;5037890;28;20340;-80
2021/01/14 00:09:52;;;;;;;6.87;3.13;;;5.60;97.80;;;;;;5038080;28;20440;-80
2021/01/14 00:12:18;;;;;;;3.10;2.73;;;5.60;97.70;;;;;;5037721;28;20447;-79
2021/01/14 00:14:44;;;;;;;6.67;3.60;;;5.60;97.60;;;;;;5037427;28;20443;-80
2021/01/14 00:17:09;;;;;;;5.83;3.20;;;5.50;97.80;;;;;;5038087;28;20445;-80
2021/01/14 00:19:35;;;;;;;6.53;3.53;;;5.50;98.20;;;;;;5038775;28;20415;-80
2021/01/14 00:22:01;;;;;;;4.93;3.40;;;5.50;98.30;;;;;;5039023;28;20599;-80
2021/01/14 00:24:27;;;;;;;10.60;3.65;;;5.50;97.70;;;;;;5038466;28;20289;-80
2021/01/14 00:26:53;;;;;;;8.03;3.80;;;5.50;97.40;;;;;;5038271;28;20694;-80
2021/01/14 00:29:19;;;;;;;4.93;2.97;;;5.50;96.90;;;;;;5038107;28;20258;-80
2021/01/14 00:31:44;;;;;;;4.15;3.00;;;5.50;97.30;;;;;;5038514;28;20177;-80
2021/01/14 00:34:10;;;;;;;4.57;2.83;;;5.50;96.90;;;;;;5038943;28;20174;-80
2021/01/14 00:39:24;;;;;;;5.40;2.72;;;5.40;96.50;;;;;;5040089;28;20400;-79
2021/01/14 00:41:51;;;;;;;4.10;2.40;;;5.40;96.90;;;;;;5037643;28;20181;-79
2021/01/14 00:44:18;;;;;;;8.30;2.75;;;5.50;96.50;;;;;;5037621;28;20316;-79
2021/01/14 00:46:44;;;;;;;7.70;3.15;;;5.40;96.50;;;;;;5037105;28;20213;-79
2021/01/14 00:49:10;;;;;;;3.40;2.53;;;5.40;96.60;;;;;;5036724;28;20224;-79
2021/01/14 00:51:38;;;;;;;3.78;2.55;;;5.40;96.50;;;;;;5038026;28;20605;-80
2021/01/14 00:54:07;;;;;;;5.03;2.35;;;5.40;96.50;;;;;;5038152;28;20514;-80
2021/01/14 00:56:37;;;;;;;6.60;3.00;;;5.40;96.50;;;;;;5037472;28;20174;-80
2021/01/14 00:59:04;;;;;;;8.38;2.88;;;5.40;96.60;;;;;;5037133;28;20181;-80
2021/01/14 01:01:31;;;;;;;6.60;2.40;;;5.40;96.40;;;;;;5037405;28;20239;-80
2021/01/14 01:03:57;;;;;;;5.22;3.30;;;5.40;96.10;;;;;;5037609;28;20178;-80
2021/01/14 01:06:34;;;;;;;4.97;2.70;;;5.40;96.40;;;;;;5037304;28;20223;-80
2021/01/14 01:09:01;;;;;;;4.22;2.75;;;5.40;96.60;;;;;;5038198;28;20185;-80
2021/01/14 01:11:27;;;;;;;4.30;3.58;;;5.40;96.00;;;;;;5037027;28;20185;-80
2021/01/14 01:13:54;;;;;;;5.18;2.50;;;5.40;95.40;;;;;;5037314;28;20178;-79
2021/01/14 01:16:20;;;;;;;6.25;3.08;;;5.40;95.20;;;;;;5036370;28;20173;-79
2021/01/14 01:18:46;;;;;;;5.22;3.15;;;5.40;94.50;;;;;;5036815;28;20673;-79
2021/01/14 01:21:12;;;;;;;4.18;2.58;;;5.30;94.40;;;;;;5036539;28;20178;-79
2021/01/14 01:23:38;;;;;;;7.68;3.10;;;5.30;94.10;;;;;;5037341;28;20213;-79
2021/01/14 01:26:04;;;;;;;6.20;2.57;;;5.30;93.90;;;;;;5037127;28;20198;-79
2021/01/14 01:28:30;;;;;;;5.93;3.43;;;5.30;93.40;;;;;;5036743;28;20436;-79
2021/01/14 01:30:56;;;;;;;5.75;2.80;;;5.30;93.90;;;;;;5037263;28;20443;-80
2021/01/14 01:33:26;;;;;;;5.70;3.17;;;5.30;93.80;;;;;;5036170;28;20630;-80
2021/01/14 01:35:53;;;;;;;2.88;2.10;;;5.30;93.80;;;;;;5035959;28;20980;-80
2021/01/14 01:38:19;;;;;;;5.55;2.90;;;5.20;93.90;;;;;;5035330;28;20204;-80
2021/01/14 01:40:53;;;;;;;4.22;2.80;;;5.20;94.10;;;;;;5036662;28;20594;-80
2021/01/14 01:43:18;;;;;;;3.65;2.63;;;5.20;94.40;;;;;;5035467;28;20177;-79
2021/01/14 01:45:45;;;;;;;6.00;3.20;;;5.10;94.70;;;;;;5036053;28;20260;-80
2021/01/14 01:48:11;;;;;;;6.35;2.78;;;5.10;94.70;;;;;;5036431;28;20256;-80
2021/01/14 01:50:37;;;;;;;6.43;3.13;;;5.10;94.90;;;;;;5035554;28;20224;-79
2021/01/14 01:53:03;;;;;;;5.43;2.77;;;5.10;94.90;;;;;;5036213;28;20539;-79
2021/01/14 01:55:29;;;;;;;4.23;2.73;;;5.10;95.10;;;;;;5035807;28;20409;-79
2021/01/14 01:57:55;;;;;;;5.85;3.20;;;5.00;95.10;;;;;;5034707;28;20436;-80
2021/01/14 02:00:21;;;;;;;6.73;3.30;;;5.00;95.30;;;;;;5035649;28;20280;-80
2021/01/14 02:02:46;;;;;;;7.00;3.42;;;5.00;95.30;;;;;;5035726;28;20416;-80
2021/01/14 02:05:13;;;;;;;5.70;3.40;;;5.00;95.30;;;;;;5036244;28;20170;-79
2021/01/14 02:08:00;;;;;;;6.25;3.53;;;5.00;95.30;;;;;;5037057;28;20201;-79
2021/01/14 02:10:39;;;;;;;7.35;3.03;;;5.00;95.30;;;;;;5036331;28;20181;-80
2021/01/14 02:13:16;;;;;;;6.43;2.85;;;5.10;95.10;;;;;;5036280;28;20166;-80
2021/01/14 02:15:43;;;;;;;5.45;3.08;;;5.10;94.90;;;;;;5036828;28;20192;-80
2021/01/14 02:18:09;;;;;;;5.78;3.45;;;5.10;94.60;;;;;;5036356;28;20225;-80
2021/01/14 02:20:37;;;;;;;6.00;2.97;;;5.10;94.20;;;;;;5036576;28;20642;-80
2021/01/14 02:23:24;;;;;;;4.03;2.63;;;5.10;93.00;;;;;;5035622;28;20202;-80
2021/01/14 02:26:14;;;;;;;6.38;2.80;;;5.10;93.00;;;;;;5036705;28;20170;-79
2021/01/14 02:28:43;;;;;;;4.28;2.15;;;5.10;93.00;;;;;;5039947;28;20200;-80
2021/01/14 02:31:09;;;;;;;4.70;2.67;;;5.10;92.90;;;;;;5039664;28;20174;-79
2021/01/14 02:33:34;;;;;;;2.65;1.85;;;5.10;93.00;;;;;;5040521;28;20250;-80
2021/01/14 02:36:01;;;;;;;2.80;2.13;;;5.10;92.50;;;;;;5039515;28;20236;-80
2021/01/14 02:38:26;;;;;;;5.88;2.88;;;5.10;92.40;;;;;;5039645;28;20798;-79
2021/01/14 02:40:52;;;;;;;8.60;2.53;;;5.00;92.70;;;;;;5038235;28;20174;-79
2021/01/14 02:43:18;;;;;;;5.63;2.20;;;4.90;92.80;;;;;;5038854;28;20420;-79
2021/01/14 02:45:44;;;;;;;3.87;1.80;;;4.80;93.00;;;;;;5038808;28;20412;-79
2021/01/14 02:48:14;;;;;;;5.00;2.77;;;4.70;93.10;;;;;;5038350;28;20470;-79
2021/01/14 02:50:40;;;;;;;3.63;2.22;;;4.70;93.70;;;;;;5038583;28;20411;-79
2021/01/14 02:53:08;;;;;;;4.50;2.42;;;4.70;94.00;;;;;;5039022;28;20174;-80
2021/01/14 02:55:35;;;;;;;5.05;2.30;;;4.80;94.00;;;;;;5038508;28;20642;-80
2021/01/14 02:58:01;;;;;;;4.78;2.60;;;4.70;93.70;;;;;;5039270;28;20225;-80
2021/01/14 03:00:27;;;;;;;3.55;2.13;;;4.70;94.10;;;;;;5038936;28;20177;-79
2021/01/14 03:02:53;;;;;;;4.78;2.40;;;4.70;93.90;;;;;;5039067;28;20182;-79
2021/01/14 03:05:19;;;;;;;4.33;3.10;;;4.70;93.90;;;;;;5038540;28;20174;-79
2021/01/14 03:07:44;;;;;;;5.47;2.57;;;4.70;93.60;;;;;;5038305;28;20288;-79
2021/01/14 03:10:10;;;;;;;3.33;2.10;;;4.70;93.40;;;;;;5126989;22;20498;-83
2021/01/14 03:12:36;;;;;;;3.58;2.20;;;4.70;93.30;;;;;;5040103;28;20408;-82
2021/01/14 03:15:04;;;;;;;4.90;2.63;;;4.70;93.30;;;;;;5040351;28;20521;-82
2021/01/14 03:17:35;;;;;;;7.82;2.30;;;4.60;93.10;;;;;;5040277;28;20443;-83
2021/01/14 03:20:01;;;;;;;4.00;2.40;;;4.60;93.60;;;;;;5040903;28;20168;-83
2021/01/14 03:22:28;;;;;;;5.82;2.45;;;4.60;93.60;;;;;;5040555;28;20534;-83
2021/01/14 03:24:53;;;;;;;6.32;2.90;;;4.50;93.90;;;;;;5040511;28;20177;-83
2021/01/14 03:27:19;;;;;;;4.47;2.40;;;4.50;94.20;;;;;;5040299;28;20201;-83
2021/01/14 03:29:45;;;;;;;3.80;2.20;;;4.50;93.80;;;;;;5040515;28;20416;-83
2021/01/14 03:32:11;;;;;;;4.60;2.60;;;4.50;94.40;;;;;;5039924;28;20192;-82
2021/01/14 03:34:36;;;;;;;5.40;3.53;;;4.40;95.00;;;;;;5040303;28;20177;-83
2021/01/14 03:37:04;;;;;;;6.60;2.10;;;4.40;94.70;;;;;;5039225;28;20439;-83
2021/01/14 03:39:30;;;;;;;3.80;1.75;;;4.40;95.00;;;;;;5038384;28;20415;-83
2021/01/14 03:41:57;;;;;;;7.68;2.45;;;4.40;95.10;;;;;;5039823;28;20177;-83
2021/01/14 03:44:24;;;;;;;4.90;2.55;;;4.40;95.30;;;;;;5039487;28;20180;-83
2021/01/14 03:46:51;;;;;;;8.63;2.85;;;4.30;95.50;;;;;;5039440;28;20205;-83
2021/01/14 03:49:17;;;;;;;6.20;2.83;;;4.30;96.00;;;;;;5039288;28;20169;-83
2021/01/14 03:51:44;;;;;;;5.80;2.97;;;4.30;96.00;;;;;;5039498;28;20245;-84
2021/01/14 03:54:13;;;;;;;5.20;2.85;;;4.30;96.30;;;;;;5039393;28;20203;-83
2021/01/14 03:56:40;;;;;;;3.90;2.65;;;4.20;96.50;;;;;;5040018;28;20173;-83
2021/01/14 03:59:06;;;;;;;7.35;2.80;;;4.20;96.90;;;;;;5040093;28;20177;-83
2021/01/14 04:01:32;;;;;;;6.97;3.10;;;4.10;97.20;;;;;;5039416;28;20238;-83
2021/01/14 04:03:58;;;;;;;9.77;2.60;;;4.10;97.10;;;;;;5040398;28;20226;-83
2021/01/14 04:06:34;;;;;;;3.37;2.10;;;4.10;97.10;;;;;;5040817;28;20292;-83
2021/01/14 04:09:01;;;;;;;5.30;2.80;;;4.00;97.50;;;;;;5040402;28;20404;-83
2021/01/14 04:11:27;;;;;;;9.32;3.20;;;4.00;97.40;;;;;;5039827;28;20535;-83
2021/01/14 04:13:53;;;;;;;16.88;3.45;;;4.10;97.70;;;;;;5039948;28;20650;-83
2021/01/14 04:16:19;;;;;;;6.68;3.47;;;4.00;97.50;;;;;;5041164;28;20203;-83
2021/01/14 04:18:45;;;;;;;6.53;3.10;;;4.00;97.70;;;;;;5041050;28;20197;-83
2021/01/14 04:21:16;;;;;;;7.30;3.13;;;3.90;98.20;;;;;;5040284;28;20922;-83
2021/01/14 04:23:43;;;;;;;7.45;3.03;;;3.90;98.50;;;;;;5040850;28;20416;-83
2021/01/14 04:26:10;;;;;;;9.10;3.63;;;3.90;98.20;;;;;;5041243;28;20653;-83
2021/01/14 04:28:39;;;;;;;7.57;2.83;;;3.90;98.10;;;;;;5039998;28;20284;-83
2021/01/14 04:31:06;;;;;;;8.25;3.78;;;3.90;98.10;;;;;;5039819;28;20166;-83
2021/01/14 04:33:32;;;;;;;9.75;2.95;;;3.80;98.40;;;;;;5057684;28;20189;-82
2021/01/14 04:36:00;;;;;;;8.53;3.20;;;3.80;98.70;;;;;;5039448;28;20184;-83
2021/01/14 04:38:28;;;;;;;7.07;3.05;;;3.80;98.90;;;;;;5038469;28;20431;-83
2021/01/14 04:40:55;;;;;;;4.20;2.83;;;3.80;99.00;;;;;;5038836;28;20189;-83
2021/01/14 04:43:25;;;;;;;6.32;3.00;;;3.70;99.10;;;;;;5038608;28;20177;-83
2021/01/14 04:46:05;;;;;;;5.90;2.60;;;3.70;99.10;;;;;;5038300;28;20181;-83
2021/01/14 04:48:34;;;;;;;6.18;3.08;;;3.70;99.10;;;;;;5038763;28;20200;-83
2021/01/14 04:51:18;;;;;;;6.07;2.88;;;3.70;99.10;;;;;;5037237;28;20177;-83
2021/01/14 04:53:46;;;;;;;5.30;2.83;;;3.70;99.10;;;;;;5038394;28;20165;-83
2021/01/14 04:56:13;;;;;;;6.90;3.25;;;3.70;99.10;;;;;;5038417;28;20188;-83
2021/01/14 04:58:41;;;;;;;9.02;4.05;;;3.70;99.10;;;;;;5039017;28;20295;-81
2021/01/14 05:01:24;;;;;;;9.43;4.18;;;3.70;99.10;;;;;;5038629;28;20168;-83
2021/01/14 05:03:53;;;;;;;13.25;3.90;;;3.70;99.10;;;;;;5037954;28;20184;-81
2021/01/14 05:06:24;;;;;;;5.88;3.53;;;3.70;99.10;;;;;;5036992;28;20205;-83
2021/01/14 05:09:01;;;;;;;14.73;4.63;;;3.70;99.10;;;;;;5047192;28;20268;-83
2021/01/14 05:11:59;;;;;;;11.48;4.30;;;3.70;99.10;;;;;;5053218;28;20203;-83
2021/01/14 05:14:25;;;;;;;6.30;3.45;;;3.70;99.10;;;;;;5054172;28;20269;-83
2021/01/14 05:16:52;;;;;;;7.88;3.80;;;3.70;99.10;;;;;;5054480;28;20228;-83
2021/01/14 05:19:19;;;;;;;8.35;4.10;;;3.70;99.10;;;;;;5053756;28;20181;-83
2021/01/14 05:21:45;;;;;;;10.52;3.70;;;3.70;99.10;;;;;;5053323;28;20173;-83
2021/01/14 05:24:16;;;;;;;7.72;3.85;;;3.70;99.10;;;;;;5053917;28;20705;-83
2021/01/14 05:26:43;;;;;;;7.15;3.50;;;3.80;99.10;;;;;;5054309;28;20193;-83
2021/01/14 05:29:16;;;;;;;10.30;3.65;;;3.80;99.10;;;;;;5054400;28;20173;-84
2021/01/14 05:31:44;;;;;;;8.20;3.38;;;3.80;99.10;;;;;;5055241;28;20168;-83
2021/01/14 05:34:09;;;;;;;6.90;2.90;;;3.70;99.10;;;;;;5054874;28;20660;-83
2021/01/14 05:36:52;;;;;;;10.13;4.20;;;3.70;99.10;;;;;;5054793;28;20177;-83
2021/01/14 05:39:19;;;;;;;13.30;4.18;;;3.60;99.10;;;;;;5055129;28;20867;-83
2021/01/14 05:41:46;;;;;;;8.30;3.72;;;3.70;99.10;;;;;;5054802;28;20180;-83
2021/01/14 05:44:12;;;;;;;11.10;4.20;;;3.60;99.10;;;;;;5056340;28;20169;-82
2021/01/14 05:46:37;;;;;;;10.60;5.23;;;3.60;99.10;;;;;;5055281;28;20723;-83
2021/01/14 05:49:04;;;;;;;9.83;4.40;;;3.60;99.10;;;;;;5054237;28;20797;-83
2021/01/14 05:51:32;;;;;;;13.82;4.28;;;3.60;99.10;;;;;;5053379;28;20640;-83
2021/01/14 05:54:03;;;;;;;11.32;4.65;;;3.70;99.10;;;;;;5054270;28;20173;-83
2021/01/14 05:56:48;;;;;;;16.83;4.78;;;3.70;99.10;;;;;;5055044;28;20203;-83
2021/01/14 05:59:19;;;;;;;10.18;3.95;;;3.70;99.10;;;;;;5055839;28;20685;-83
2021/01/14 06:02:12;;;;;;;7.00;3.83;;;3.70;99.10;;;;;;5055098;28;20196;-83
2021/01/14 06:04:37;;;;;;;7.65;3.97;;;3.70;99.10;;;;;;5051090;28;20260;-83
2021/01/14 06:07:06;;;;;;;11.80;5.40;;;3.60;99.10;;;;;;5054931;28;20639;-83
2021/01/14 06:09:42;;;;;;;9.40;5.10;;;3.70;99.10;;;;;;5054500;28;20185;-82
2021/01/14 06:12:13;;;;;;;13.00;5.47;;;3.70;99.10;;;;;;5054289;28;20267;-83
2021/01/14 06:14:39;;;;;;;10.75;5.65;;;3.80;99.10;;;;;;5053402;28;20238;-86
2021/01/14 06:17:07;;;;;;;9.57;5.30;;;3.80;99.10;;;;;;5057129;28;20204;-81
2021/01/14 06:19:33;;;;;;;8.55;5.30;;;3.80;99.10;;;;;;5056585;28;20176;-82
2021/01/14 06:22:00;;;;;;;11.23;5.10;;;3.70;99.10;;;;;;5056180;28;20268;-81
2021/01/14 06:24:29;;;;;;;8.65;4.95;;;3.80;99.10;;;;;;5058315;28;20173;-81
2021/01/14 06:27:09;;;;;;;15.40;5.43;;;3.80;99.10;;;;;;5057378;28;20188;-81
2021/01/14 06:29:39;;;;;;;8.73;5.00;;;3.90;99.10;;;;;;5057477;28;20182;-79
2021/01/14 06:32:06;;;;;;;13.45;5.25;;;3.90;99.10;;;;;;5057068;28;20175;-79
2021/01/14 06:34:33;;;;;;;13.30;5.53;;;3.80;99.10;;;;;;5057419;28;20173;-80
2021/01/14 06:37:06;;;;;;;10.27;5.70;;;3.80;99.10;;;;;;5058112;28;20193;-79
2021/01/14 06:39:44;;;;;;;11.30;5.25;;;3.80;99.10;;;;;;5057850;28;20173;-80
2021/01/14 06:42:21;;;;;;;14.88;5.45;;;3.80;99.10;;;;;;5056790;28;20659;-81
2021/01/14 06:44:54;;;;;;;9.77;5.63;;;3.80;99.10;;;;;;5057775;28;20208;-81
2021/01/14 06:47:44;;;;;;;11.68;5.22;;;3.80;99.10;;;;;;5056126;28;20695;-81
2021/01/14 06:50:26;;;;;;;14.45;4.40;;;3.70;99.10;;;;;;5056868;28;20212;-81
2021/01/14 06:53:01;;;;;;;12.30;5.15;;;3.60;99.10;;;;;;5056779;28;20169;-81
2021/01/14 06:55:33;;;;;;;11.60;4.78;;;3.50;99.10;;;;;;5056204;28;20203;-81
2021/01/14 06:58:14;;;;;;;9.85;4.97;;;3.50;99.10;;;;;;5056936;28;20209;-81
2021/01/14 07:00:44;;;;;;;11.45;5.65;;;3.40;99.10;;;;;;5040230;28;20201;-81
2021/01/14 07:03:13;;;;;;;8.57;5.07;;;3.40;99.10;;;;;;5056354;28;20180;-81
2021/01/14 07:05:52;;;;;;;10.90;5.05;;;3.40;99.10;;;;;;5056395;28;20180;-82
2021/01/14 07:08:33;;;;;;;6.45;4.18;;;3.50;99.10;;;;;;5056865;28;20201;-82
2021/01/14 07:11:10;;;;;;;11.32;4.70;;;3.50;98.90;;;;;;5055884;28;20216;-81
2021/01/14 07:13:39;;;;;;;7.57;4.40;;;3.50;98.50;;;;;;5058497;28;20169;-82
2021/01/14 07:16:09;;;;;;;8.00;4.47;;;3.40;98.70;;;;;;5060507;28;20173;-82
2021/01/14 07:18:36;;;;;;;10.82;5.18;;;3.40;98.60;;;;;;5060553;28;20209;-81
2021/01/14 07:21:11;;;;;;;15.25;5.47;;;3.50;98.40;;;;;;5060219;28;20201;-82
2021/01/14 07:23:43;;;;;;;6.88;4.50;;;3.50;98.60;;;;;;5060221;28;20165;-81
2021/01/14 07:26:10;;;;;;;14.38;5.47;;;3.50;98.50;;;;;;5059960;28;20217;-80
2021/01/14 07:28:37;;;;;;;10.82;6.00;;;3.50;98.50;;;;;;5059543;28;20221;-81
2021/01/14 07:31:23;;;;;;;12.52;5.85;;;3.50;98.30;;;;;;5059194;28;20255;-82
2021/01/14 07:33:50;;;;;;;10.73;5.63;;;3.50;98.50;;;;;;5059338;28;20177;-81
2021/01/14 07:36:26;;;;;;;12.90;5.88;;;3.50;98.30;;;;;;5058285;28;20181;-82
2021/01/14 07:38:57;;;;;;;13.75;6.85;;;3.60;98.30;;;;;;5058777;28;20248;-82
2021/01/14 07:41:23;;;;;;;9.70;5.70;;;3.60;98.40;;;;;;5058616;28;20181;-82
2021/01/14 07:43:50;;;;;;;10.15;5.50;;;3.70;97.80;;;;;;5058800;28;20199;-81
2021/01/14 07:46:28;;;;;;;11.20;6.55;;;3.60;97.70;;;;;;5058852;28;20287;-81
2021/01/14 07:48:54;;;;;;;17.98;7.00;;;3.60;97.90;;;;;;5058458;28;20664;-81
2021/01/14 07:51:21;;;;;;;13.60;6.73;;;3.50;98.00;;;;;;5058949;28;20169;-81
2021/01/14 07:54:08;;;;;;;16.60;7.10;;;3.60;98.40;;;;;;5058876;28;20177;-81
2021/01/14 07:56:51;;;;;;;17.23;7.72;;;3.60;98.30;;;;;;5058340;28;20231;-81
2021/01/14 07:59:29;;;;;;;13.98;7.50;;;3.70;98.20;;;;;;5058741;28;20196;-81
2021/01/14 08:02:07;;;;;;;13.57;6.35;;;3.80;98.30;;;;;;5058189;28;20176;-81
2021/01/14 08:04:47;;;;;;;12.82;6.55;;;3.80;98.20;;;;;;5058338;28;20176;-81
2021/01/14 08:07:24;;;;;;;16.33;7.13;;;3.80;97.90;;;;;;5057619;28;20291;-81
2021/01/14 08:09:51;;;;;;;18.20;6.72;;;3.80;98.10;;;;;;5057525;28;20181;-81
2021/01/14 08:12:22;;;;;;;12.93;6.20;;;3.80;98.20;;;;;;5058048;28;20169;-81
2021/01/14 08:14:48;;;;;;;13.13;6.43;;;3.90;97.90;;;;;;5057839;28;20165;-81
2021/01/14 08:17:24;;;;;;;11.85;6.05;;;3.80;97.20;;;;;;5058246;28;20197;-81
2021/01/14 08:19:51;;;;;;;12.57;6.88;;;3.80;97.30;;;;;;5057980;28;20184;-81
2021/01/14 08:22:18;;;;;;;12.45;6.50;;;3.70;97.70;;;;;;5057679;28;20204;-81
2021/01/14 08:24:51;;;;;;;20.52;7.20;;;3.70;97.80;;;;;;5057241;28;20542;-81
2021/01/14 08:27:31;;;;;;;17.73;6.20;;;3.70;97.70;;;;;;5057323;28;20209;-81
2021/01/14 08:30:07;;;;;;;13.35;5.82;;;3.70;97.70;;;;;;5056569;28;20625;-81
2021/01/14 08:32:41;;;;;;;7.65;5.22;;;3.70;97.70;;;;;;5057443;28;20201;-81
2021/01/14 08:35:16;;;;;;;16.10;6.82;;;3.70;97.40;;;;;;5057821;28;20172;-82
2021/01/14 08:37:48;;;;;;;16.52;6.10;;;3.70;97.30;;;;;;5057681;28;20192;-81
2021/01/14 08:40:34;;;;;;;10.68;5.90;;;3.70;97.30;;;;;;5056743;28;20169;-81
2021/01/14 08:43:04;;;;;;;14.68;6.30;;;3.70;97.60;;;;;;5056758;28;20692;-81
2021/01/14 08:45:46;;;;;;;18.23;7.40;;;3.70;97.60;;;;;;5056683;28;20173;-81
2021/01/14 08:48:31;;;;;;;20.23;7.38;;;3.80;97.60;;;;;;5056201;28;20208;-81
2021/01/14 08:50:58;;;;;;;12.65;6.53;;;3.90;97.00;;;;;;5056990;28;20176;-81
2021/01/14 08:53:36;;;;;;;19.00;7.10;;;3.90;96.90;;;;;;5057022;28;20169;-82
2021/01/14 08:56:14;;;;;;;13.52;7.03;;;3.90;97.20;;;;;;5058142;28;20196;-81
2021/01/14 08:58:43;;;;;;;21.98;6.47;;;3.90;96.90;;;;;;5058849;28;20230;-81
2021/01/14 09:01:22;;;;;;;11.90;6.00;;;3.90;96.60;;;;;;5059023;28;20173;-81
2021/01/14 09:03:50;;;;;;;21.52;6.65;;;3.80;96.30;;;;;;5058800;28;20173;-81
2021/01/14 09:06:16;;;;;;;18.40;8.00;;;3.80;95.80;;;;;;5057599;28;20200;-80
2021/01/14 09:08:42;;;;;;;16.80;7.35;;;3.70;95.80;;;;;;5057139;28;20189;-81
2021/01/14 09:11:09;;;;;;;13.35;8.02;;;3.70;95.70;;;;;;5057080;28;20207;-81
2021/01/14 09:13:34;;;;;;;19.30;7.05;;;3.70;96.10;;;;;;5056816;28;20260;-81
2021/01/14 09:16:09;;;;;;;22.20;8.37;;;3.70;96.60;;;;;;5057117;28;20756;-81
2021/01/14 09:18:42;;;;;;;15.38;7.25;;;3.80;96.80;;;;;;5056508;28;20446;-81
2021/01/14 09:21:09;;;;;;;22.75;8.90;;;3.70;95.80;;;;;;5056367;28;20192;-81
2021/01/14 09:23:37;;;;;;;19.30;8.02;;;3.80;95.60;;;;;;5057155;28;20165;-81
2021/01/14 09:26:09;;;;;;;22.08;9.20;;;3.70;95.60;;;;;;5056861;28;20634;-81
2021/01/14 09:28:35;;;;;;;24.65;9.18;;;3.70;96.30;;;;;;5057135;28;20279;-81
2021/01/14 09:31:03;;;;;;;21.13;8.85;;;3.70;96.00;;;;;;5056313;28;20662;-81
2021/01/14 09:33:37;;;;;;;17.88;7.68;;;3.80;96.60;;;;;;5056814;28;20174;-81
2021/01/14 09:36:14;;;;;;;21.30;8.43;;;3.80;95.80;;;;;;5055273;28;20187;-81
2021/01/14 09:38:46;;;;;;;17.65;7.38;;;3.70;96.40;;;;;;5055936;28;20254;-81
2021/01/14 09:41:13;;;;;;;14.57;7.55;;;3.80;96.40;;;;;;5055629;28;20193;-81
2021/01/14 09:43:41;;;;;;;19.98;8.05;;;3.70;96.10;;;;;;5055592;28;20177;-81
2021/01/14 09:46:13;;;;;;;18.23;8.23;;;3.80;96.90;;;;;;5055722;28;20177;-81
2021/01/14 09:48:40;;;;;;;13.32;7.00;;;3.80;96.80;;;;;;5055660;28;20549;-81
2021/01/14 09:51:13;;;;;;;16.15;7.50;;;3.70;96.60;;;;;;5055933;28;20173;-81
2021/01/14 09:53:49;;;;;;;20.17;8.38;;;3.70;97.00;;;;;;5055671;28;20188;-81
2021/01/14 09:56:35;;;;;;;20.27;9.02;;;3.70;97.20;;;;;;5055990;28;20177;-81
2021/01/14 09:59:22;;;;;;;25.77;10.20;;;3.80;97.10;;;;;;5055644;28;20573;-81
2021/01/14 10:02:25;;;;;;;15.27;8.48;;;3.80;97.00;;;;;;5056062;28;20183;-81
2021/01/14 10:04:59;;;;;;;15.00;7.72;;;3.80;96.70;;;;;;5053906;28;20177;-82
2021/01/14 10:07:26;;;;;;;23.77;9.15;;;3.80;96.50;;;;;;5056861;28;20241;-81
2021/01/14 10:09:53;;;;;;;19.38;7.72;;;3.70;95.80;;;;;;5055577;28;20189;-81
2021/01/14 10:12:19;;;;;;;13.38;6.82;;;3.70;96.30;;;;;;5056222;28;20173;-81
2021/01/14 10:14:45;;;;;;;20.00;9.20;;;3.70;96.10;;;;;;5057095;28;20169;-82
2021/01/14 10:17:13;;;;;;;18.73;8.47;;;3.80;96.50;;;;;;5057212;28;20204;-81
2021/01/14 10:19:43;;;;;;;17.60;8.07;;;3.80;96.20;;;;;;5056577;28;20416;-81
2021/01/14 10:22:08;;;;;;;14.25;8.10;;;3.80;95.90;;;;;;5055306;28;20188;-81
2021/01/14 10:24:34;;;;;;;17.87;8.10;;;3.90;95.80;;;;;;5056650;28;20547;-81
2021/01/14 10:27:17;;;;;;;14.43;7.90;;;3.80;95.30;;;;;;5055741;28;20517;-81
2021/01/14 10:29:45;;;;;;;13.93;7.40;;;3.80;96.10;;;;;;5055848;28;20825;-81
2021/01/14 10:32:16;;;;;;;20.42;9.88;;;3.80;96.30;;;;;;5056108;28;20633;-81
2021/01/14 10:34:46;;;;;;;18.45;7.53;;;3.80;95.00;;;;;;5056846;28;20162;-82
2021/01/14 10:37:26;;;;;;;13.68;6.65;;;3.80;95.50;;;;;;5056680;28;20192;-81
2021/01/14 10:39:56;;;;;;;15.75;8.35;;;3.90;94.40;;;;;;5055724;28;20223;-81
2021/01/14 10:42:31;;;;;;;16.73;8.25;;;3.90;95.00;;;;;;5055984;28;20645;-82
2021/01/14 10:45:02;;;;;;;21.38;7.07;;;4.00;95.30;;;;;;5055642;28;20533;-82
2021/01/14 10:47:28;;;;;;;14.68;6.90;;;4.00;95.20;;;;;;5054943;28;20201;-82
2021/01/14 10:49:55;;;;;;;14.15;7.68;;;4.00;93.80;;;;;;5058757;28;20238;-81
2021/01/14 10:52:20;;;;;;;15.50;6.60;;;4.00;93.70;;;;;;5059762;28;20173;-82
2021/01/14 10:55:00;;;;;;;12.37;7.77;;;4.00;93.90;;;;;;5059762;28;20170;-81
2021/01/14 10:57:52;;;;;;;19.67;7.25;;;3.90;93.30;;;;;;5059448;28;20431;-81
2021/01/14 11:00:19;;;;;;;20.67;8.60;;;3.90;93.70;;;;;;5058755;28;20177;-81
2021/01/14 11:02:45;;;;;;;19.10;7.60;;;4.00;93.90;;;;;;5059301;28;20173;-81
2021/01/14 11:05:13;;;;;;;20.45;7.55;;;3.90;93.20;;;;;;5059414;28;20181;-82
2021/01/14 11:07:39;;;;;;;16.38;7.57;;;3.90;93.50;;;;;;5058747;28;20254;-82
2021/01/14 11:10:11;;;;;;;23.47;8.43;;;3.80;93.80;;;;;;5059807;28;20181;-82
2021/01/14 11:13:03;;;;;;;30.65;9.15;;;3.80;93.90;;;;;;5060545;28;20411;-82
2021/01/14 11:15:29;;;;;;;18.05;7.95;;;3.80;93.70;;;;;;5059673;28;20672;-83
2021/01/14 11:17:55;;;;;;;18.45;9.80;;;3.70;94.20;;;;;;5058791;28;20560;-83
2021/01/14 11:20:21;;;;;;;20.07;9.03;;;3.70;93.90;;;;;;5060012;28;20178;-82
2021/01/14 11:22:47;;;;;;;20.77;8.03;;;3.80;94.10;;;;;;5059233;28;20205;-81
2021/01/14 11:25:13;;;;;;;15.90;8.47;;;3.80;94.40;;;;;;5059719;28;20177;-82
2021/01/14 11:27:39;;;;;;;21.98;8.25;;;3.80;94.40;;;;;;5059058;28;20494;-81
2021/01/14 11:30:06;;;;;;;18.75;8.00;;;3.80;93.70;;;;;;5059432;28;20178;-82
2021/01/14 11:32:34;;;;;;;17.77;7.70;;;3.70;93.70;;;;;;5060481;28;20174;-82
2021/01/14 11:35:00;;;;;;;14.90;6.60;;;3.70;92.00;;;;;;5059291;28;20173;-82
2021/01/14 11:37:26;;;;;;;13.83;5.60;;;3.60;91.00;;;;;;5058179;28;20196;-82
2021/01/14 11:39:52;;;;;;;13.20;6.40;;;3.70;91.60;;;;;;5056483;28;20267;-84
2021/01/14 11:42:17;;;;;;;11.03;5.53;;;3.70;91.70;;;;;;5056403;28;20173;-84
2021/01/14 11:44:43;;;;;;;14.93;5.80;;;3.70;91.50;;;;;;5059287;28;20248;-81
2021/01/14 11:47:09;;;;;;;14.17;6.20;;;3.70;91.10;;;;;;5060142;28;20707;-82
2021/01/14 11:49:35;;;;;;;13.77;6.50;;;3.70;90.50;;;;;;5060478;28;20439;-82
2021/01/14 11:52:00;;;;;;;13.97;6.47;;;3.70;91.00;;;;;;5058694;28;20415;-83
2021/01/14 11:54:26;;;;;;;13.20;6.17;;;3.70;91.40;;;;;;5059563;28;20166;-83
2021/01/14 11:56:52;;;;;;;13.17;6.57;;;3.80;91.50;;;;;;5059871;28;20436;-82
2021/01/14 11:59:18;;;;;;;21.35;5.95;;;3.80;91.10;;;;;;5060155;28;20412;-82
2021/01/14 12:01:44;;;;;;;10.47;5.60;;;3.90;90.30;;;;;;5059943;28;20680;-82
2021/01/14 12:04:10;;;;;;;12.45;5.78;;;3.90;89.90;;;;;;5059709;28;20408;-80
2021/01/14 12:06:36;;;;;;;19.13;6.10;;;3.90;90.40;;;;;;5058498;28;20212;-82
2021/01/14 12:09:02;;;;;;;11.10;5.90;;;3.90;90.40;;;;;;5058751;28;20219;-82
2021/01/14 12:11:28;;;;;;;9.63;4.90;;;3.90;90.10;;;;;;5058937;28;20590;-80
2021/01/14 12:13:54;;;;;;;16.87;5.73;;;4.00;88.90;;;;;;5060274;28;20295;-81
2021/01/14 12:16:20;;;;;;;9.43;5.32;;;4.00;89.40;;;;;;5059011;28;20416;-80
2021/01/14 12:18:46;;;;;;;16.85;5.28;;;4.10;89.40;;;;;;5058951;28;20524;-80
2021/01/14 12:21:16;;;;;;;13.67;5.30;;;4.20;88.30;;;;;;5057419;28;20180;-85
2021/01/14 12:23:47;;;;;;;13.88;6.18;;;4.20;86.70;;;;;;5057692;28;20408;-82
2021/01/14 12:26:13;;;;;;;15.10;5.80;;;4.30;87.80;;;;;;5057508;28;20177;-83
2021/01/14 12:28:39;;;;;;;11.13;5.40;;;4.30;86.60;;;;;;5057258;28;20612;-82
2021/01/14 12:31:05;;;;;;;11.65;5.13;;;4.40;88.00;;;;;;5057723;28;20511;-82
2021/01/14 12:33:31;;;;;;;14.47;6.50;;;4.50;85.80;;;;;;5057719;28;20184;-83
2021/01/14 12:35:57;;;;;;;15.20;6.47;;;4.50;85.50;;;;;;5057301;28;20415;-83
2021/01/14 12:38:23;;;;;;;10.67;5.60;;;4.60;86.40;;;;;;5057410;28;20190;-82
2021/01/14 12:40:49;;;;;;;19.87;6.90;;;4.60;85.10;;;;;;5057207;28;20783;-84
2021/01/14 12:43:14;;;;;;;21.10;7.95;;;4.60;86.40;;;;;;5057668;28;20200;-82
2021/01/14 12:45:40;;;;;;;15.10;6.57;;;4.50;86.00;;;;;;5058287;28;20177;-81
2021/01/14 12:48:06;;;;;;;23.27;6.30;;;4.60;87.00;;;;;;5057882;28;20699;-82
2021/01/14 12:50:32;;;;;;;15.52;5.97;;;4.60;86.70;;;;;;5058189;28;20219;-82
2021/01/14 12:52:58;;;;;;;20.50;7.40;;;4.60;87.00;;;;;;5058534;28;20173;-82
2021/01/14 12:55:24;;;;;;;13.15;6.10;;;4.70;86.40;;;;;;5058442;28;20166;-81
2021/01/14 12:57:50;;;;;;;10.43;5.32;;;4.80;86.70;;;;;;5058623;28;20536;-81
2021/01/14 13:00:16;;;;;;;12.00;5.63;;;4.90;85.90;;;;;;5056811;28;20260;-81
2021/01/14 13:02:42;;;;;;;10.15;5.72;;;4.90;83.40;;;;;;5056858;28;20633;-82
2021/01/14 13:05:08;;;;;;;12.47;4.87;;;4.80;84.40;;;;;;5057524;28;20173;-82